This is the latest recevied weather packets stored in our database for station/object KJ5HMU-13. If no packets are shown the sender has not sent any weather packets the latest 1 day(s).
| Time | Temp. | Humidity | Pressure | Rain* | Wind** | Luminosity | Snow |
|---|---|---|---|---|---|---|---|
| 1778024056 | 2.22° C | 89% | 1017.5 hPa | 0 mm | 1.34 m/s, 313° | 21 W/m² | - |
| 1778023753 | 2.78° C | 88% | 1017.5 hPa | 0 mm | 0.45 m/s, 263° | 30 W/m² | - |
| 1778023451 | 2.78° C | 86% | 1017.3 hPa | 0 mm | 0.89 m/s, 144° | 28 W/m² | - |
| 1778023147 | 2.78° C | 86% | 1017.4 hPa | 0 mm | 0 m/s | 17 W/m² | - |
| 1778022845 | 2.78° C | 87% | 1017.7 hPa | 0 mm | 0 m/s | 24 W/m² | - |
| 1778022543 | 2.78° C | 89% | 1017.7 hPa | 0 mm | 0 m/s | 30 W/m² | - |
| 1778022240 | 2.78° C | 89% | 1017.7 hPa | 0 mm | 0 m/s | 15 W/m² | - |
| 1778021936 | 2.78° C | 88% | 1017.3 hPa | 0 mm | 0 m/s | 23 W/m² | - |
| 1778021634 | 2.78° C | 90% | 1017.3 hPa | 0 mm | 0.45 m/s, 29° | 17 W/m² | - |
| 1778021329 | 2.78° C | 90% | 1017.2 hPa | 0 mm | 0 m/s | 18 W/m² | - |
| 1778021027 | 2.78° C | 87% | 1017.2 hPa | 0 mm | 0 m/s | 21 W/m² | - |
| 1778020723 | 2.78° C | 87% | 1017 hPa | 0 mm | 0 m/s | 23 W/m² | - |
| 1778020420 | 2.78° C | 88% | 1016.9 hPa | 1.78 mm | 0 m/s | 44 W/m² | - |
| 1778020116 | 2.78° C | 86% | 1017.2 hPa | 1.78 mm | 1.34 m/s, 19° | 41 W/m² | - |
| 1778019813 | 2.78° C | 89% | 1017.2 hPa | 0 mm | 0.45 m/s, 22° | 28 W/m² | - |
| 1778019510 | 2.22° C | 91% | 1017.3 hPa | 0 mm | 0 m/s | 25 W/m² | - |
| 1778019206 | 2.22° C | 90% | 1016.8 hPa | 0 mm | 0.45 m/s, 18° | 58 W/m² | - |
| 1778018903 | 2.22° C | 89% | 1016.6 hPa | 1.78 mm | 0.89 m/s, 24° | 34 W/m² | - |
| 1778018600 | 2.22° C | 89% | 1016.9 hPa | 1.78 mm | 0.89 m/s, 8° | 34 W/m² | - |
| 1778018299 | 2.78° C | 90% | 1016.5 hPa | 3.05 mm | 0.45 m/s, 40° | 49 W/m² | - |
| 1778017996 | 2.78° C | 91% | 1016.6 hPa | 1.27 mm | 1.79 m/s, 22° | 39 W/m² | - |
| 1778017694 | 2.22° C | 93% | 1016.5 hPa | 1.78 mm | 0.89 m/s, 136° | 108 W/m² | - |
| 1778017391 | 1.67° C | 93% | 1016.4 hPa | 1.78 mm | 0 m/s | 54 W/m² | - |
| 1778017088 | 1.67° C | 92% | 1016.2 hPa | 0 mm | 0.45 m/s, 6° | 21 W/m² | - |
| 1778016786 | 1.67° C | 90% | 1016.1 hPa | 0 mm | 1.34 m/s, 8° | 34 W/m² | - |
* Rain latest hour (hover to see other rain measurements)
** Current wind speed in m/s (hover to see current wind gust speed)